Time;durP1;ratioP1;P1;durP2;ratioP2;P2;SDS_P1;SDS_P2;PMS_P1;PMS_P2;Temp;Humidity;BMP_temperature;BMP_pressure;BME280_temperature;BME280_humidity;BME280_pressure;Samples;Min_cycle;Max_cycle;Signal;HPM_P1;HPM_P2
2024/03/16 00:02:07;;;;;;;8.52;3.50;;;;;;;10.37;93.84;99815.44;10271284;28;20101;-83
2024/03/16 00:07:10;;;;;;;6.38;2.63;;;;;;;10.67;91.88;99821.75;10261918;28;20039;-83
2024/03/16 00:12:14;;;;;;;5.93;3.42;;;;;;;10.39;96.93;99816.16;10271276;28;20061;-83
2024/03/16 00:17:19;;;;;;;8.60;3.05;;;;;;;10.08;98.95;99823.38;10261024;28;20618;-82
2024/03/16 00:22:22;;;;;;;9.25;3.53;;;;;;;9.58;100.00;99830.44;10270103;28;20051;-83
2024/03/16 00:27:25;;;;;;;11.18;4.72;;;;;;;9.26;100.00;99834.00;10255595;28;20084;-84
2024/03/16 00:32:28;;;;;;;13.20;5.20;;;;;;;9.28;100.00;99818.66;10265547;28;20055;-83
2024/03/16 00:37:31;;;;;;;11.73;6.68;;;;;;;9.42;100.00;99823.69;10256641;28;20525;-81
2024/03/16 00:42:35;;;;;;;12.65;5.47;;;;;;;9.00;100.00;99830.84;10226360;28;20160;-84
2024/03/16 00:47:38;;;;;;;12.80;6.00;;;;;;;9.20;100.00;99815.78;10249274;28;20473;-83
2024/03/16 00:52:41;;;;;;;12.45;5.38;;;;;;;9.28;100.00;99807.94;10267064;28;20046;-83
2024/03/16 00:57:45;;;;;;;14.00;5.75;;;;;;;9.46;100.00;99814.44;10243597;28;20053;-82
2024/03/16 01:02:48;;;;;;;16.63;5.43;;;;;;;9.44;100.00;99808.34;10250476;28;20047;-83
2024/03/16 01:07:51;;;;;;;15.65;5.85;;;;;;;9.33;100.00;99792.31;10268147;28;20049;-85
2024/03/16 01:12:54;;;;;;;13.70;5.80;;;;;;;9.76;100.00;99804.69;10259916;28;20063;-83
2024/03/16 01:17:58;;;;;;;14.05;5.22;;;;;;;9.50;100.00;99799.75;10274266;28;20042;-81
2024/03/16 01:23:02;;;;;;;19.92;6.43;;;;;;;9.59;100.00;99805.31;10249960;28;20049;-82
2024/03/16 01:28:05;;;;;;;14.85;5.15;;;;;;;9.70;100.00;99803.41;10279873;28;20448;-82
2024/03/16 01:33:10;;;;;;;11.18;4.90;;;;;;;9.67;100.00;99802.81;10268703;28;20038;-83
2024/03/16 01:38:13;;;;;;;18.88;4.97;;;;;;;9.53;100.00;99795.97;10255277;28;20047;-84
2024/03/16 01:43:16;;;;;;;14.93;4.88;;;;;;;9.77;100.00;99801.06;10253777;28;20074;-83
2024/03/16 01:48:19;;;;;;;11.25;5.25;;;;;;;9.68;100.00;99800.03;10267175;28;20450;-83
2024/03/16 01:53:22;;;;;;;15.70;4.55;;;;;;;9.79;100.00;99800.91;10255592;28;20050;-84
2024/03/16 01:58:25;;;;;;;12.82;4.18;;;;;;;9.62;100.00;99800.53;10268631;28;20410;-82
2024/03/16 02:03:28;;;;;;;15.52;4.53;;;;;;;9.54;100.00;99802.19;10253559;28;20806;-83
2024/03/16 02:08:31;;;;;;;14.82;4.82;;;;;;;9.31;100.00;99807.69;10243883;28;20052;-82
2024/03/16 02:13:34;;;;;;;11.00;4.18;;;;;;;9.47;100.00;99794.66;10271906;28;20111;-81
2024/03/16 02:18:37;;;;;;;15.55;4.32;;;;;;;9.56;100.00;99808.25;10292331;28;20505;-85
2024/03/16 02:23:40;;;;;;;21.40;4.55;;;;;;;9.79;100.00;99808.94;10285875;28;20051;-84
2024/03/16 02:28:43;;;;;;;11.15;4.85;;;;;;;9.88;100.00;99811.72;10262836;28;20047;-84
2024/03/16 02:33:46;;;;;;;10.68;4.30;;;;;;;9.67;100.00;99805.50;10242146;28;20047;-83
2024/03/16 02:38:49;;;;;;;12.30;4.75;;;;;;;9.92;100.00;99812.28;10242960;28;20051;-83
2024/03/16 02:43:52;;;;;;;12.95;3.67;;;;;;;10.02;100.00;99804.31;10241864;28;20055;-84
2024/03/16 02:48:55;;;;;;;10.80;4.40;;;;;;;9.52;100.00;99815.72;10260618;28;20055;-84
2024/03/16 02:53:59;;;;;;;13.48;5.85;;;;;;;9.61;100.00;99814.94;10264234;28;20047;-84
2024/03/16 02:59:02;;;;;;;13.20;6.75;;;;;;;9.57;100.00;99816.19;10274373;28;20042;-85
2024/03/16 03:04:06;;;;;;;21.02;5.93;;;;;;;9.85;100.00;99821.84;10277636;28;20035;-83
2024/03/16 03:09:09;;;;;;;12.13;5.38;;;;;;;9.90;100.00;99830.34;10268103;28;20035;-81
2024/03/16 03:14:16;;;;;;;11.75;6.15;;;;;;;9.80;100.00;99824.06;10287125;28;20050;-83
2024/03/16 03:19:20;;;;;;;13.02;5.90;;;;;;;9.98;100.00;99822.47;10278803;28;20042;-82
2024/03/16 03:24:23;;;;;;;9.07;5.30;;;;;;;9.81;99.95;99834.66;10276170;28;20046;-83
2024/03/16 03:29:26;;;;;;;12.98;5.55;;;;;;;9.78;99.46;99829.56;10271153;28;20126;-85
2024/03/16 03:34:30;;;;;;;9.30;5.32;;;;;;;9.63;100.00;99833.56;10258995;28;20506;-83
2024/03/16 03:39:33;;;;;;;11.50;7.53;;;;;;;10.04;98.10;99835.38;10258314;28;20058;-85
2024/03/16 03:44:38;;;;;;;13.52;7.25;;;;;;;9.93;98.79;99828.28;10276154;28;20053;-84
2024/03/16 03:49:50;;;;;;;11.65;6.70;;;;;;;9.73;99.46;99847.88;10280627;28;20126;-85
2024/03/16 03:54:53;;;;;;;13.82;7.43;;;;;;;9.44;100.00;99845.88;10260912;28;20075;-84
2024/03/16 03:59:56;;;;;;;11.43;6.70;;;;;;;10.07;96.04;99843.16;10275293;28;20050;-81
2024/03/16 04:04:59;;;;;;;10.90;6.90;;;;;;;9.88;97.17;99853.81;10264262;28;20119;-85
2024/03/16 04:10:04;;;;;;;12.65;5.18;;;;;;;9.43;99.13;99844.16;10249685;28;20051;-82
2024/03/16 04:15:08;;;;;;;13.80;6.97;;;;;;;9.63;98.80;99849.66;10253708;28;20050;-84
2024/03/16 04:20:12;;;;;;;15.20;7.38;;;;;;;9.65;98.21;99848.56;10253128;28;20053;-86
2024/03/16 04:25:15;;;;;;;16.83;8.95;;;;;;;9.51;99.94;99843.50;10280617;28;20046;-84
2024/03/16 04:30:18;;;;;;;12.02;5.88;;;;;;;9.37;100.00;99854.56;10259461;28;20078;-84
2024/03/16 04:35:21;;;;;;;22.42;9.57;;;;;;;8.60;100.00;99858.22;10246851;28;20051;-84
2024/03/16 04:40:24;;;;;;;23.95;11.27;;;;;;;9.08;100.00;99854.31;10258682;28;20046;-83
2024/03/16 04:45:29;;;;;;;22.30;11.60;;;;;;;8.69;100.00;99868.16;10258620;28;20057;-84
2024/03/16 04:50:32;;;;;;;23.40;10.73;;;;;;;8.69;100.00;99870.00;10257781;28;20141;-83
2024/03/16 04:55:35;;;;;;;23.85;14.05;;;;;;;8.88;100.00;99872.88;10248376;28;20053;-84
2024/03/16 05:00:38;;;;;;;24.48;14.48;;;;;;;8.69;100.00;99873.53;10257367;28;20074;-85
2024/03/16 05:05:41;;;;;;;25.40;13.70;;;;;;;8.64;100.00;99869.53;10271372;28;20158;-84
2024/03/16 05:10:49;;;;;;;34.15;17.35;;;;;;;8.54;100.00;99872.09;10294087;28;20039;-83
2024/03/16 05:15:52;;;;;;;34.97;18.75;;;;;;;8.58;100.00;99878.91;10267524;28;20118;-84
2024/03/16 05:20:55;;;;;;;26.20;13.35;;;;;;;8.24;100.00;99889.59;10251488;28;20445;-81
2024/03/16 05:25:59;;;;;;;32.00;15.63;;;;;;;8.49;100.00;99898.38;10250157;28;20568;-83
2024/03/16 05:31:02;;;;;;;37.65;18.15;;;;;;;8.49;100.00;99888.53;10250328;28;20050;-82
2024/03/16 05:36:06;;;;;;;38.42;19.25;;;;;;;8.52;100.00;99900.81;10272193;28;20043;-83
2024/03/16 05:41:09;;;;;;;27.45;14.82;;;;;;;8.68;100.00;99906.63;10261365;28;20042;-81
2024/03/16 05:46:12;;;;;;;39.22;19.85;;;;;;;8.55;100.00;99911.28;10257567;28;20062;-81
2024/03/16 05:51:15;;;;;;;36.85;18.42;;;;;;;8.69;100.00;99912.84;10272994;28;20042;-82
2024/03/16 05:56:19;;;;;;;26.02;14.60;;;;;;;8.56;100.00;99911.16;10256267;28;20051;-84
2024/03/16 06:01:22;;;;;;;32.05;15.65;;;;;;;8.88;100.00;99930.94;10255447;28;20054;-83
2024/03/16 06:06:25;;;;;;;31.23;17.13;;;;;;;8.49;100.00;99933.19;10271518;28;20051;-83
2024/03/16 06:11:28;;;;;;;25.00;15.13;;;;;;;8.88;100.00;99936.31;10269556;28;20057;-82
2024/03/16 06:16:32;;;;;;;34.03;17.45;;;;;;;8.62;100.00;99944.63;10255118;28;20733;-82
2024/03/16 06:21:35;;;;;;;31.15;16.88;;;;;;;8.78;100.00;99958.50;10256141;28;20446;-81
2024/03/16 06:26:39;;;;;;;32.80;17.08;;;;;;;8.65;100.00;99963.13;10281496;28;20060;-82
2024/03/16 06:31:44;;;;;;;33.28;17.73;;;;;;;8.66;100.00;99967.50;10261064;28;20442;-81
2024/03/16 06:36:47;;;;;;;30.00;18.45;;;;;;;8.60;100.00;99984.91;10263481;28;20138;-82
2024/03/16 06:41:51;;;;;;;25.35;12.70;;;;;;;8.53;100.00;99982.81;10264004;28;20078;-82
2024/03/16 06:46:54;;;;;;;24.35;14.68;;;;;;;8.52;100.00;99998.03;10257813;28;20058;-83
2024/03/16 06:51:58;;;;;;;16.67;10.93;;;;;;;8.34;100.00;100027.06;10276955;28;20109;-85
2024/03/16 06:57:01;;;;;;;7.20;4.50;;;;;;;8.73;100.00;100056.25;10265626;28;20047;-84
2024/03/16 07:02:04;;;;;;;6.95;3.10;;;;;;;7.64;100.00;100081.38;10285650;28;20049;-84
2024/03/16 07:07:08;;;;;;;4.15;2.30;;;;;;;7.32;100.00;100091.75;10279083;28;20142;-84
2024/03/16 07:12:11;;;;;;;4.60;2.67;;;;;;;7.64;100.00;100101.91;10278215;28;20130;-83
2024/03/16 07:17:14;;;;;;;4.07;2.97;;;;;;;7.64;100.00;100117.97;10271090;28;20050;-83
2024/03/16 07:22:17;;;;;;;3.35;2.45;;;;;;;7.39;100.00;100133.09;10279265;28;20039;-84
2024/03/16 07:27:20;;;;;;;4.57;3.08;;;;;;;7.49;100.00;100149.34;10274478;28;20055;-82
2024/03/16 07:32:23;;;;;;;4.80;3.08;;;;;;;7.58;100.00;100167.38;10273584;28;20049;-83
2024/03/16 07:37:26;;;;;;;8.25;4.28;;;;;;;7.85;100.00;100177.91;10264484;28;20043;-86
2024/03/16 07:42:30;;;;;;;7.00;4.72;;;;;;;7.75;100.00;100189.38;10263916;28;20050;-83
2024/03/16 07:47:33;;;;;;;8.35;4.80;;;;;;;7.73;100.00;100214.41;10261694;28;20050;-84
2024/03/16 07:52:36;;;;;;;10.38;6.25;;;;;;;7.99;100.00;100222.34;10261317;28;20039;-85
2024/03/16 07:57:39;;;;;;;8.35;5.53;;;;;;;8.41;100.00;100225.50;10267389;28;20065;-85
2024/03/16 08:02:42;;;;;;;11.15;5.57;;;;;;;8.00;100.00;100237.44;10263605;28;20042;-84
2024/03/16 08:07:47;;;;;;;7.60;4.90;;;;;;;7.68;100.00;100247.78;10265359;28;20094;-83
2024/03/16 08:12:50;;;;;;;7.32;4.57;;;;;;;7.48;100.00;100274.06;10267321;28;20046;-82
2024/03/16 08:17:56;;;;;;;5.63;3.58;;;;;;;8.04;100.00;100287.09;10277152;28;20043;-83
2024/03/16 08:22:59;;;;;;;2.60;2.30;;;;;;;7.93;100.00;100301.22;10282251;28;20122;-85
2024/03/16 08:28:02;;;;;;;2.75;1.60;;;;;;;7.71;100.00;100312.59;10269892;28;20047;-84
2024/03/16 08:33:06;;;;;;;2.35;1.50;;;;;;;7.62;100.00;100326.56;10274523;28;20061;-85
2024/03/16 08:38:09;;;;;;;1.65;1.45;;;;;;;7.63;100.00;100330.97;10242669;28;20043;-83
2024/03/16 08:43:12;;;;;;;3.13;1.30;;;;;;;7.49;100.00;100347.97;10233565;28;20051;-81
2024/03/16 08:48:16;;;;;;;2.38;1.17;;;;;;;7.63;100.00;100365.75;10238766;28;20054;-83
2024/03/16 08:53:19;;;;;;;5.28;1.42;;;;;;;7.77;100.00;100371.94;10236673;28;20425;-82
2024/03/16 08:58:24;;;;;;;4.30;1.60;;;;;;;7.27;100.00;100375.31;10253153;28;21464;-83
2024/03/16 09:03:28;;;;;;;3.17;1.48;;;;;;;8.08;100.00;100387.53;10235362;28;20110;-82
2024/03/16 09:08:31;;;;;;;3.45;1.35;;;;;;;7.76;100.00;100404.97;10220085;28;20051;-82
2024/03/16 09:13:35;;;;;;;2.55;1.42;;;;;;;7.83;100.00;100430.34;10235251;28;20054;-82
2024/03/16 09:18:38;;;;;;;1.98;1.60;;;;;;;7.55;100.00;100437.59;10214470;28;20126;-84
2024/03/16 09:23:41;;;;;;;4.75;1.52;;;;;;;7.24;100.00;100462.81;10222691;28;20046;-83
2024/03/16 09:28:44;;;;;;;9.32;1.95;;;;;;;7.71;100.00;100458.81;10218397;28;20042;-83
2024/03/16 09:33:48;;;;;;;7.45;1.75;;;;;;;8.18;100.00;100470.72;10229703;28;20061;-82
2024/03/16 09:44:22;;;;;;;12.20;2.75;;;;;;;8.78;100.00;100490.63;10265490;28;20063;-85
2024/03/16 09:49:25;;;;;;;7.90;1.70;;;;;;;7.91;89.77;100508.25;10238490;29;20046;-83
2024/03/16 09:54:28;;;;;;;14.10;2.13;;;;;;;7.78;94.08;100518.91;10242205;28;20047;-84
2024/03/16 09:59:31;;;;;;;9.27;1.95;;;;;;;7.76;94.55;100522.63;10242270;29;20043;-83
2024/03/16 10:04:33;;;;;;;8.02;1.92;;;;;;;7.95;95.87;100528.47;10233642;29;20051;-86
2024/03/16 10:09:35;;;;;;;9.52;1.63;;;;;;;8.02;97.45;100542.31;10230839;29;20050;-85
2024/03/16 10:14:38;;;;;;;10.15;1.73;;;;;;;7.75;93.96;100548.53;10237892;29;20055;-85
2024/03/16 10:19:40;;;;;;;10.25;1.70;;;;;;;7.76;82.91;100563.59;10227756;29;20035;-82
2024/03/16 10:24:42;;;;;;;7.25;1.42;;;;;;;7.73;82.34;100566.50;10263134;29;20110;-85
2024/03/16 10:29:44;;;;;;;6.97;1.10;;;;;;;7.84;83.09;100569.31;10225151;29;20051;-84
2024/03/16 10:34:46;;;;;;;6.18;1.25;;;;;;;7.37;80.40;100592.00;10236400;29;20043;-84
2024/03/16 10:39:49;;;;;;;5.85;1.40;;;;;;;8.20;85.53;100599.94;10215322;29;20062;-86
2024/03/16 10:44:52;;;;;;;9.10;1.52;;;;;;;7.77;84.65;100612.63;10203789;28;20386;-84
2024/03/16 10:49:55;;;;;;;7.45;1.63;;;;;;;8.01;84.66;100611.00;10177269;28;20058;-82
2024/03/16 10:54:57;;;;;;;10.88;1.55;;;;;;;8.24;88.38;100625.50;10190249;28;20126;-84
2024/03/16 10:59:59;;;;;;;6.32;1.50;;;;;;;8.31;86.01;100633.97;10177666;28;20214;-85
2024/03/16 11:05:01;;;;;;;8.43;2.33;;;;;;;8.24;85.27;100643.38;10187022;28;20138;-84
2024/03/16 11:10:03;;;;;;;6.18;1.55;;;;;;;8.23;84.17;100660.38;10205095;28;20091;-84
2024/03/16 11:15:33;;;;;;;10.60;1.67;;;;;;;8.26;87.15;100665.56;10192449;28;20051;-84
2024/03/16 11:20:36;;;;;;;12.15;2.10;;;;;;;8.18;79.10;100674.94;10193476;28;20079;-84
2024/03/16 11:25:38;;;;;;;8.85;1.80;;;;;;;8.33;80.18;100673.06;10188661;28;20073;-84
2024/03/16 11:30:40;;;;;;;5.80;1.63;;;;;;;8.35;80.25;100681.00;10188649;28;20195;-84
2024/03/16 11:35:42;;;;;;;12.13;1.90;;;;;;;8.90;82.57;100687.97;10193086;28;20710;-84
2024/03/16 11:40:45;;;;;;;9.60;2.28;;;;;;;8.42;75.41;100700.16;10190235;28;20124;-84
2024/03/16 11:45:47;;;;;;;8.48;2.38;;;;;;;8.28;75.84;100712.69;10181644;28;20055;-83
2024/03/16 11:50:49;;;;;;;11.40;2.00;;;;;;;8.61;79.56;100714.94;10195361;28;20114;-84
2024/03/16 11:55:51;;;;;;;9.20;1.75;;;;;;;8.25;71.58;100720.03;10217154;28;20098;-83
2024/03/16 12:00:53;;;;;;;8.90;1.73;;;;;;;8.68;76.22;100734.13;10184698;28;20047;-84
2024/03/16 12:05:56;;;;;;;8.18;1.60;;;;;;;8.77;80.35;100746.03;10190192;28;20059;-84
2024/03/16 12:10:58;;;;;;;6.40;1.75;;;;;;;8.38;75.30;100755.72;10208726;28;20055;-84
2024/03/16 12:16:00;;;;;;;7.55;1.75;;;;;;;8.01;72.30;100757.25;10183744;28;20503;-83
2024/03/16 12:21:03;;;;;;;11.25;1.58;;;;;;;8.33;71.79;100766.75;10203555;28;20051;-83
2024/03/16 12:26:09;;;;;;;4.95;1.55;;;;;;;8.80;77.39;100770.81;10181190;28;20118;-83
2024/03/16 12:31:11;;;;;;;10.98;1.38;;;;;;;9.41;69.18;100763.03;10179261;28;20135;-83
2024/03/16 12:36:13;;;;;;;2.90;1.33;;;;;;;8.76;68.07;100768.44;10187906;28;20063;-83
2024/03/16 12:41:16;;;;;;;10.60;2.25;;;;;;;8.74;65.20;100775.69;10220806;28;20850;-83
2024/03/16 12:46:19;;;;;;;5.78;1.10;;;;;;;8.71;63.83;100773.22;10187038;28;20208;-83
2024/03/16 12:51:21;;;;;;;5.07;1.35;;;;;;;8.61;64.05;100786.38;10212751;28;20471;-83
2024/03/16 12:56:23;;;;;;;6.95;1.48;;;;;;;8.15;65.02;100803.59;10184664;28;20098;-82
2024/03/16 13:01:26;;;;;;;5.75;1.88;;;;;;;8.38;64.05;100795.88;10205478;28;20538;-82
2024/03/16 13:06:28;;;;;;;4.38;1.60;;;;;;;8.73;63.34;100796.28;10172276;28;20131;-82
2024/03/16 13:11:30;;;;;;;3.53;1.70;;;;;;;8.82;63.07;100790.28;10183393;28;20637;-82
2024/03/16 13:16:32;;;;;;;2.88;1.65;;;;;;;8.47;64.50;100808.69;10193044;28;20055;-82
2024/03/16 13:21:35;;;;;;;;;;;;;;;8.87;65.77;100789.13;10183878;28;20181;-83
2024/03/16 13:26:37;;;;;;;4.60;1.10;;;;;;;9.41;61.45;100787.16;10200086;28;20017;-82
2024/03/16 13:31:39;;;;;;;6.20;1.33;;;;;;;9.99;61.67;100775.97;10182220;28;20173;-83
2024/03/16 13:36:41;;;;;;;3.30;1.08;;;;;;;10.65;56.88;100793.47;10170782;28;20045;-84
2024/03/16 13:41:44;;;;;;;4.90;1.23;;;;;;;10.39;55.09;100787.31;10167138;28;20087;-84
2024/03/16 13:46:46;;;;;;;5.32;1.40;;;;;;;10.06;57.90;100788.81;10175562;28;20051;-84
2024/03/16 13:51:49;;;;;;;6.47;1.10;;;;;;;9.60;57.93;100796.59;10181197;28;20075;-82
2024/03/16 13:56:51;;;;;;;4.43;1.30;;;;;;;9.93;60.43;100793.38;10176655;28;20818;-82
2024/03/16 14:01:53;;;;;;;2.85;1.20;;;;;;;10.34;57.13;100800.25;10181618;28;20178;-82
2024/03/16 14:06:57;;;;;;;5.25;1.42;;;;;;;9.07;60.00;100810.06;10184265;28;20055;-83
2024/03/16 14:11:59;;;;;;;6.40;1.90;;;;;;;9.83;59.62;100811.06;10181816;28;20051;-80
2024/03/16 14:17:01;;;;;;;8.20;1.33;;;;;;;8.50;60.20;100835.31;10186555;28;20411;-81
2024/03/16 14:22:04;;;;;;;4.28;1.27;;;;;;;8.94;59.97;100826.13;10181002;28;20049;-82
2024/03/16 14:27:07;;;;;;;5.53;1.25;;;;;;;8.67;62.57;100831.50;10178153;28;20154;-81
2024/03/16 14:32:10;;;;;;;3.53;1.90;;;;;;;9.30;61.56;100840.69;10201839;28;20047;-81
2024/03/16 14:37:12;;;;;;;6.38;1.58;;;;;;;9.04;58.75;100840.59;10175441;28;20249;-82
2024/03/16 14:42:14;;;;;;;7.72;1.15;;;;;;;10.66;56.55;100840.84;10183991;28;20075;-82
2024/03/16 14:47:17;;;;;;;3.92;0.90;;;;;;;9.32;57.97;100852.13;10186586;28;20111;-82
2024/03/16 14:52:19;;;;;;;6.78;1.63;;;;;;;9.19;59.19;100860.19;10187198;28;20173;-82
2024/03/16 14:57:23;;;;;;;6.68;1.38;;;;;;;9.21;58.48;100862.72;10172917;28;20067;-82
2024/03/16 15:02:25;;;;;;;5.00;1.20;;;;;;;8.81;59.12;100862.75;10188030;28;20043;-82
2024/03/16 15:07:28;;;;;;;2.65;1.20;;;;;;;9.28;59.58;100856.84;10183125;28;20048;-81
2024/03/16 15:12:30;;;;;;;;;;;;;;;8.80;59.55;100869.91;10182542;28;20067;-82
2024/03/16 15:17:32;;;;;;;3.20;0.85;;;;;;;9.12;59.27;100871.41;10218989;28;20020;-82
2024/03/16 15:22:34;;;;;;;;;;;;;;;8.14;61.41;100879.47;10187331;28;20554;-83
2024/03/16 15:27:55;;;;;;;1.10;0.63;;;;;;;8.94;59.44;100884.19;10218858;28;20036;-82
2024/03/16 15:32:57;;;;;;;3.80;1.25;;;;;;;9.45;58.88;100879.84;10190388;28;20047;-83
2024/03/16 15:37:59;;;;;;;4.80;1.15;;;;;;;9.17;57.92;100878.16;10190524;28;20052;-83
2024/03/16 15:43:01;;;;;;;8.85;1.35;;;;;;;9.05;59.01;100901.31;10189595;28;20058;-83
2024/03/16 15:48:03;;;;;;;6.57;1.50;;;;;;;8.34;61.51;100899.63;10169138;28;21233;-84
2024/03/16 15:53:06;;;;;;;5.72;1.50;;;;;;;9.68;57.80;100890.78;10184704;28;20086;-84
2024/03/16 15:58:09;;;;;;;5.70;1.45;;;;;;;9.74;57.63;100898.44;10191187;28;20145;-83
2024/03/16 16:03:11;;;;;;;7.75;1.73;;;;;;;9.02;59.21;100901.50;10170991;28;20183;-83
2024/03/16 16:08:13;;;;;;;11.88;1.73;;;;;;;9.00;58.51;100903.44;10163722;28;20102;-83
2024/03/16 16:13:22;;;;;;;6.10;1.23;;;;;;;8.90;59.71;100913.03;10199582;28;20062;-81
2024/03/16 16:18:25;;;;;;;8.07;2.47;;;;;;;8.59;60.67;100911.50;10181656;28;20068;-82
2024/03/16 16:23:28;;;;;;;6.68;1.70;;;;;;;8.92;59.41;100926.34;10164031;28;20055;-82
2024/03/16 16:28:30;;;;;;;6.60;1.70;;;;;;;8.91;60.93;100919.25;10182933;28;20047;-83
2024/03/16 16:33:32;;;;;;;5.30;1.70;;;;;;;8.54;60.39;100930.53;10204682;28;20113;-83
2024/03/16 16:38:35;;;;;;;7.30;2.20;;;;;;;8.78;59.60;100936.13;10172335;28;20102;-83
2024/03/16 16:43:39;;;;;;;;;;;;;;;8.63;59.49;100947.81;10183221;28;20616;-82
2024/03/16 16:48:44;;;;;;;5.00;2.65;;;;;;;8.64;60.38;100941.53;10209876;28;20065;-82
2024/03/16 16:53:46;;;;;;;3.92;1.70;;;;;;;8.48;60.13;100951.50;10181750;28;20134;-83
2024/03/16 16:58:48;;;;;;;5.25;1.25;;;;;;;8.53;59.68;100965.41;10180899;28;20583;-83
2024/03/16 17:03:50;;;;;;;6.65;1.90;;;;;;;8.51;59.91;100968.22;10182233;28;20054;-82
2024/03/16 17:08:53;;;;;;;4.75;2.92;;;;;;;7.66;60.92;100967.13;10185122;28;20093;-82
2024/03/16 17:13:55;;;;;;;2.50;1.58;;;;;;;8.04;60.07;100985.38;10173765;28;20043;-81
2024/03/16 17:18:59;;;;;;;8.45;2.88;;;;;;;8.24;60.89;100980.63;10179457;28;20648;-83
2024/03/16 17:24:03;;;;;;;15.93;8.57;;;;;;;8.17;61.61;100990.81;10183878;28;20190;-82
2024/03/16 17:29:07;;;;;;;37.60;22.48;;;;;;;7.93;61.73;100996.72;10167373;28;20051;-81
2024/03/16 17:34:09;;;;;;;21.60;15.38;;;;;;;7.82;62.24;100996.50;10166672;28;20078;-82
2024/03/16 17:39:12;;;;;;;6.70;2.08;;;;;;;8.19;61.39;101004.97;10211811;28;20075;-81
2024/03/16 17:44:14;;;;;;;7.55;3.70;;;;;;;7.88;62.93;101012.19;10194055;28;20059;-80
2024/03/16 17:49:16;;;;;;;5.65;2.40;;;;;;;7.82;63.13;101017.06;10227017;28;20150;-80
2024/03/16 17:54:19;;;;;;;5.50;1.65;;;;;;;8.28;62.98;101014.25;10180871;28;20075;-81
2024/03/16 17:59:21;;;;;;;4.38;2.13;;;;;;;8.22;63.29;101015.50;10184137;28;20054;-81
2024/03/16 18:04:23;;;;;;;6.88;1.73;;;;;;;8.00;63.14;101018.59;10185433;28;20051;-80
2024/03/16 18:09:26;;;;;;;8.40;1.88;;;;;;;7.65;63.26;101020.69;10193662;28;20062;-81
2024/03/16 18:14:28;;;;;;;;;;;;;;;8.03;62.87;101026.44;10168907;28;20051;-81
2024/03/16 18:19:30;;;;;;;4.03;1.50;;;;;;;8.11;62.99;101032.19;10221596;28;19969;-81
2024/03/16 18:24:34;;;;;;;6.53;1.45;;;;;;;7.85;63.14;101038.25;10175457;28;20764;-81
2024/03/16 18:29:36;;;;;;;2.83;1.40;;;;;;;7.82;64.31;101044.66;10219812;28;20560;-81
2024/03/16 18:34:38;;;;;;;4.03;1.70;;;;;;;7.73;64.61;101046.06;10222545;28;20047;-82
2024/03/16 18:39:44;;;;;;;7.90;1.67;;;;;;;7.89;63.99;101048.66;10215139;28;20051;-81
2024/03/16 18:44:46;;;;;;;11.13;9.15;;;;;;;7.47;64.71;101052.91;10206145;28;20138;-83
2024/03/16 18:49:50;;;;;;;4.78;2.80;;;;;;;7.60;65.46;101058.41;10218484;28;20581;-81
2024/03/16 18:54:54;;;;;;;4.40;2.30;;;;;;;7.57;65.78;101068.41;10230466;28;20047;-82
2024/03/16 18:59:56;;;;;;;10.43;3.10;;;;;;;7.12;67.54;101057.56;10221022;28;20047;-82
2024/03/16 19:04:58;;;;;;;5.68;2.47;;;;;;;7.15;67.43;101068.09;10214812;28;20161;-84
2024/03/16 19:10:03;;;;;;;6.38;2.95;;;;;;;7.25;67.73;101069.31;10205984;28;20055;-83
2024/03/16 19:15:08;;;;;;;4.47;2.25;;;;;;;7.17;67.67;101079.56;10209433;28;20450;-82
2024/03/16 19:20:12;;;;;;;2.88;2.08;;;;;;;7.26;67.07;101075.50;10207751;28;20102;-84
2024/03/16 19:25:16;;;;;;;7.72;3.08;;;;;;;6.95;68.46;101095.06;10221915;28;20690;-82
2024/03/16 19:30:19;;;;;;;4.95;4.43;;;;;;;6.82;68.66;101101.03;10214474;28;20078;-82
2024/03/16 19:35:21;;;;;;;14.63;4.25;;;;;;;6.82;69.36;101106.34;10207684;28;20066;-82
2024/03/16 19:40:25;;;;;;;7.47;3.90;;;;;;;6.51;70.60;101125.81;10223617;28;20063;-85
2024/03/16 19:45:27;;;;;;;15.15;6.38;;;;;;;6.54;70.86;101120.31;10208428;28;20149;-83
2024/03/16 19:50:29;;;;;;;15.93;7.72;;;;;;;6.48;71.19;101120.66;10220543;28;20055;-82
2024/03/16 19:55:33;;;;;;;19.02;8.38;;;;;;;6.57;70.35;101121.97;10220849;28;20070;-82
2024/03/16 20:00:35;;;;;;;13.15;6.57;;;;;;;6.66;70.27;101121.47;10217328;28;20150;-83
2024/03/16 20:05:38;;;;;;;8.60;4.90;;;;;;;6.53;70.74;101129.28;10218067;28;20047;-83
2024/03/16 20:10:41;;;;;;;4.70;3.10;;;;;;;6.56;70.19;101131.78;10210507;28;20070;-84
2024/03/16 20:15:43;;;;;;;6.63;2.22;;;;;;;6.45;70.61;101125.28;10210821;28;20130;-82
2024/03/16 20:20:50;;;;;;;5.65;2.13;;;;;;;6.40;71.17;101131.72;10217402;28;20078;-82
2024/03/16 20:25:54;;;;;;;5.80;2.70;;;;;;;6.42;70.90;101136.09;10214532;28;20050;-82
2024/03/16 20:30:57;;;;;;;5.25;2.42;;;;;;;6.38;71.22;101144.28;10219124;28;20054;-82
2024/03/16 20:35:59;;;;;;;8.23;2.65;;;;;;;6.01;73.54;101147.97;10220934;28;20070;-81
2024/03/16 20:41:11;;;;;;;8.57;3.95;;;;;;;6.14;72.66;101143.75;10219164;28;20102;-81
2024/03/16 20:46:14;;;;;;;9.27;2.83;;;;;;;5.72;74.30;101144.06;10198770;28;20075;-82
2024/03/16 20:51:16;;;;;;;14.57;8.43;;;;;;;5.83;74.94;101149.72;10196495;28;20089;-82
2024/03/16 20:56:20;;;;;;;9.88;3.33;;;;;;;5.99;74.16;101154.31;10211052;28;20126;-83
2024/03/16 21:01:22;;;;;;;11.65;3.58;;;;;;;6.11;73.67;101156.34;10205839;28;20059;-83
2024/03/16 21:06:24;;;;;;;5.50;4.28;;;;;;;6.19;73.18;101172.84;10204449;28;20063;-82
2024/03/16 21:11:28;;;;;;;8.13;6.00;;;;;;;6.02;74.19;101181.69;10208459;28;20245;-82
2024/03/16 21:16:30;;;;;;;4.10;2.70;;;;;;;6.01;74.29;101189.78;10198322;28;20049;-81
2024/03/16 21:21:33;;;;;;;5.97;3.03;;;;;;;5.63;75.84;101176.50;10201353;28;20522;-81
2024/03/16 21:26:36;;;;;;;7.43;2.75;;;;;;;5.92;74.49;101183.06;10211352;28;20126;-82
2024/03/16 21:31:39;;;;;;;6.70;2.60;;;;;;;5.90;74.33;101191.16;10194705;28;20621;-82
2024/03/16 21:36:42;;;;;;;9.20;3.20;;;;;;;5.83;74.56;101197.72;10210548;28;21285;-81
2024/03/16 21:41:45;;;;;;;13.95;4.10;;;;;;;5.82;74.96;101192.47;10211171;28;20594;-81
2024/03/16 21:46:48;;;;;;;11.93;3.53;;;;;;;5.77;75.45;101190.00;10208685;28;20066;-82
2024/03/16 21:51:50;;;;;;;11.32;3.25;;;;;;;5.75;75.28;101191.88;10211522;28;20111;-82
2024/03/16 21:56:53;;;;;;;7.68;3.00;;;;;;;5.70;75.76;101189.47;10208774;28;20130;-83
2024/03/16 22:01:56;;;;;;;5.43;3.03;;;;;;;5.68;76.17;101204.66;10194504;28;20075;-84
2024/03/16 22:07:01;;;;;;;6.03;3.13;;;;;;;5.68;76.33;101199.31;10206015;28;20101;-83
2024/03/16 22:12:05;;;;;;;11.82;3.13;;;;;;;5.68;76.18;101201.13;10189806;28;20051;-83
2024/03/16 22:17:07;;;;;;;9.18;2.78;;;;;;;5.62;76.82;101204.97;10209487;28;20166;-82
2024/03/16 22:22:10;;;;;;;8.45;2.90;;;;;;;5.62;76.79;101196.06;10210060;28;20552;-81
2024/03/16 22:27:14;;;;;;;11.85;3.55;;;;;;;5.62;77.24;101207.63;10195071;28;20574;-81
2024/03/16 22:32:16;;;;;;;6.55;2.35;;;;;;;5.62;77.58;101220.06;10206752;28;20134;-81
2024/03/16 22:37:18;;;;;;;14.38;3.13;;;;;;;5.62;77.55;101220.94;10211995;28;20549;-81
2024/03/16 22:42:22;;;;;;;9.27;3.08;;;;;;;5.67;77.89;101226.91;10204498;28;20051;-83
2024/03/16 22:47:24;;;;;;;8.98;2.92;;;;;;;5.74;77.93;101230.16;10208594;28;20058;-82
2024/03/16 22:52:27;;;;;;;8.85;3.22;;;;;;;5.80;77.63;101231.66;10208043;28;20607;-82
2024/03/16 22:57:30;;;;;;;10.75;3.45;;;;;;;5.87;77.18;101236.66;10186661;28;20138;-81
2024/03/16 23:02:32;;;;;;;12.40;3.55;;;;;;;5.88;77.15;101232.16;10208146;28;20101;-81
2024/03/16 23:07:34;;;;;;;7.07;3.35;;;;;;;5.94;76.92;101238.06;10194418;28;20134;-81
2024/03/16 23:12:38;;;;;;;9.48;3.53;;;;;;;5.87;76.84;101227.75;10215019;28;20118;-82
2024/03/16 23:17:40;;;;;;;7.45;4.20;;;;;;;5.83;76.70;101229.72;10199291;28;20137;-81
2024/03/16 23:22:43;;;;;;;8.77;3.28;;;;;;;5.82;76.34;101232.47;10225109;28;20042;-82
2024/03/16 23:27:47;;;;;;;9.90;2.97;;;;;;;5.81;76.04;101233.38;10196088;28;20047;-81